sensor_id;sensor_type;location;lat;lon;timestamp;P1;durP1;ratioP1;P2;durP2;ratioP2
45618;SDS011;31343;47.520;19.144;2023-07-31T00:02:00;2.08;;;1.20;;
45618;SDS011;31343;47.520;19.144;2023-07-31T00:04:27;1.80;;;0.88;;
45618;SDS011;31343;47.520;19.144;2023-07-31T00:06:54;5.50;;;1.13;;
45618;SDS011;31343;47.520;19.144;2023-07-31T00:09:25;1.00;;;0.77;;
45618;SDS011;31343;47.520;19.144;2023-07-31T00:11:58;0.90;;;0.75;;
45618;SDS011;31343;47.520;19.144;2023-07-31T00:14:36;1.60;;;0.90;;
45618;SDS011;31343;47.520;19.144;2023-07-31T00:17:06;2.05;;;1.33;;
45618;SDS011;31343;47.520;19.144;2023-07-31T00:19:33;1.05;;;0.77;;
45618;SDS011;31343;47.520;19.144;2023-07-31T00:22:06;1.88;;;1.20;;
45618;SDS011;31343;47.520;19.144;2023-07-31T00:24:36;0.88;;;0.75;;
45618;SDS011;31343;47.520;19.144;2023-07-31T00:27:04;0.88;;;0.70;;
45618;SDS011;31343;47.520;19.144;2023-07-31T00:29:30;2.05;;;1.27;;
45618;SDS011;31343;47.520;19.144;2023-07-31T00:32:03;1.23;;;0.85;;
45618;SDS011;31343;47.520;19.144;2023-07-31T00:34:33;1.25;;;1.02;;
45618;SDS011;31343;47.520;19.144;2023-07-31T00:37:14;1.17;;;0.70;;
45618;SDS011;31343;47.520;19.144;2023-07-31T00:39:40;3.15;;;1.15;;
45618;SDS011;31343;47.520;19.144;2023-07-31T00:42:14;1.98;;;1.27;;
45618;SDS011;31343;47.520;19.144;2023-07-31T00:44:41;0.77;;;0.70;;
45618;SDS011;31343;47.520;19.144;2023-07-31T00:47:08;1.95;;;1.08;;
45618;SDS011;31343;47.520;19.144;2023-07-31T00:49:35;1.90;;;1.02;;
45618;SDS011;31343;47.520;19.144;2023-07-31T00:52:05;2.05;;;1.17;;
45618;SDS011;31343;47.520;19.144;2023-07-31T00:54:31;2.53;;;2.17;;
45618;SDS011;31343;47.520;19.144;2023-07-31T00:56:56;1.05;;;0.90;;
45618;SDS011;31343;47.520;19.144;2023-07-31T00:59:24;1.25;;;0.77;;
45618;SDS011;31343;47.520;19.144;2023-07-31T01:01:52;1.15;;;0.82;;
45618;SDS011;31343;47.520;19.144;2023-07-31T01:04:25;1.55;;;1.08;;
45618;SDS011;31343;47.520;19.144;2023-07-31T01:10:27;1.67;;;0.88;;
45618;SDS011;31343;47.520;19.144;2023-07-31T01:12:59;1.63;;;1.00;;
45618;SDS011;31343;47.520;19.144;2023-07-31T01:15:27;1.63;;;0.98;;
45618;SDS011;31343;47.520;19.144;2023-07-31T01:17:58;2.00;;;1.23;;
45618;SDS011;31343;47.520;19.144;2023-07-31T01:20:26;2.30;;;1.30;;
45618;SDS011;31343;47.520;19.144;2023-07-31T01:23:07;1.95;;;1.25;;
45618;SDS011;31343;47.520;19.144;2023-07-31T01:25:46;2.17;;;1.15;;
45618;SDS011;31343;47.520;19.144;2023-07-31T01:28:19;1.55;;;1.10;;
45618;SDS011;31343;47.520;19.144;2023-07-31T01:30:48;2.65;;;1.15;;
45618;SDS011;31343;47.520;19.144;2023-07-31T01:33:19;1.48;;;0.90;;
45618;SDS011;31343;47.520;19.144;2023-07-31T01:35:45;2.40;;;1.38;;
45618;SDS011;31343;47.520;19.144;2023-07-31T01:38:16;2.63;;;1.67;;
45618;SDS011;31343;47.520;19.144;2023-07-31T01:40:46;1.40;;;1.08;;
45618;SDS011;31343;47.520;19.144;2023-07-31T01:43:22;1.95;;;1.35;;
45618;SDS011;31343;47.520;19.144;2023-07-31T01:45:50;1.67;;;1.15;;
45618;SDS011;31343;47.520;19.144;2023-07-31T01:48:18;3.15;;;1.63;;
45618;SDS011;31343;47.520;19.144;2023-07-31T01:50:44;2.63;;;1.50;;
45618;SDS011;31343;47.520;19.144;2023-07-31T01:53:10;1.48;;;1.10;;
45618;SDS011;31343;47.520;19.144;2023-07-31T01:55:39;2.55;;;1.40;;
45618;SDS011;31343;47.520;19.144;2023-07-31T01:58:11;2.08;;;1.30;;
45618;SDS011;31343;47.520;19.144;2023-07-31T02:00:39;1.58;;;1.35;;
45618;SDS011;31343;47.520;19.144;2023-07-31T02:03:10;1.40;;;1.02;;
45618;SDS011;31343;47.520;19.144;2023-07-31T02:05:45;2.30;;;1.10;;
45618;SDS011;31343;47.520;19.144;2023-07-31T02:08:12;3.05;;;2.13;;
45618;SDS011;31343;47.520;19.144;2023-07-31T02:10:38;2.83;;;1.50;;
45618;SDS011;31343;47.520;19.144;2023-07-31T02:13:05;1.60;;;1.27;;
45618;SDS011;31343;47.520;19.144;2023-07-31T02:15:31;1.77;;;1.10;;
45618;SDS011;31343;47.520;19.144;2023-07-31T02:17:57;1.92;;;1.00;;
45618;SDS011;31343;47.520;19.144;2023-07-31T02:20:23;2.28;;;1.77;;
45618;SDS011;31343;47.520;19.144;2023-07-31T02:22:49;2.10;;;1.83;;
45618;SDS011;31343;47.520;19.144;2023-07-31T02:25:15;1.60;;;1.20;;
45618;SDS011;31343;47.520;19.144;2023-07-31T02:27:41;2.20;;;1.40;;
45618;SDS011;31343;47.520;19.144;2023-07-31T02:30:07;1.92;;;1.15;;
45618;SDS011;31343;47.520;19.144;2023-07-31T02:32:35;1.38;;;1.27;;
45618;SDS011;31343;47.520;19.144;2023-07-31T02:35:00;3.13;;;2.13;;
45618;SDS011;31343;47.520;19.144;2023-07-31T02:37:31;1.95;;;1.00;;
45618;SDS011;31343;47.520;19.144;2023-07-31T02:39:58;2.20;;;1.42;;
45618;SDS011;31343;47.520;19.144;2023-07-31T02:42:26;2.97;;;1.20;;
45618;SDS011;31343;47.520;19.144;2023-07-31T02:44:52;2.65;;;1.30;;
45618;SDS011;31343;47.520;19.144;2023-07-31T02:47:22;2.03;;;1.25;;
45618;SDS011;31343;47.520;19.144;2023-07-31T02:49:48;1.63;;;0.98;;
45618;SDS011;31343;47.520;19.144;2023-07-31T02:52:14;2.28;;;1.08;;
45618;SDS011;31343;47.520;19.144;2023-07-31T02:54:43;1.83;;;1.10;;
45618;SDS011;31343;47.520;19.144;2023-07-31T02:57:09;2.45;;;1.17;;
45618;SDS011;31343;47.520;19.144;2023-07-31T02:59:36;2.95;;;1.23;;
45618;SDS011;31343;47.520;19.144;2023-07-31T03:02:02;1.48;;;1.02;;
45618;SDS011;31343;47.520;19.144;2023-07-31T03:04:27;1.25;;;0.70;;
45618;SDS011;31343;47.520;19.144;2023-07-31T03:06:54;0.80;;;0.70;;
45618;SDS011;31343;47.520;19.144;2023-07-31T03:09:25;3.15;;;1.35;;
45618;SDS011;31343;47.520;19.144;2023-07-31T03:11:53;2.08;;;1.38;;
45618;SDS011;31343;47.520;19.144;2023-07-31T03:14:20;2.83;;;1.60;;
45618;SDS011;31343;47.520;19.144;2023-07-31T03:16:46;1.75;;;1.15;;
45618;SDS011;31343;47.520;19.144;2023-07-31T03:19:13;1.70;;;0.82;;
45618;SDS011;31343;47.520;19.144;2023-07-31T03:21:46;1.10;;;1.00;;
45618;SDS011;31343;47.520;19.144;2023-07-31T03:24:12;1.42;;;0.80;;
45618;SDS011;31343;47.520;19.144;2023-07-31T03:26:43;1.52;;;1.00;;
45618;SDS011;31343;47.520;19.144;2023-07-31T03:29:08;1.67;;;1.10;;
45618;SDS011;31343;47.520;19.144;2023-07-31T03:31:34;1.40;;;1.08;;
45618;SDS011;31343;47.520;19.144;2023-07-31T03:34:00;1.60;;;0.95;;
45618;SDS011;31343;47.520;19.144;2023-07-31T03:36:31;2.03;;;1.10;;
45618;SDS011;31343;47.520;19.144;2023-07-31T03:38:57;1.02;;;0.85;;
45618;SDS011;31343;47.520;19.144;2023-07-31T03:41:29;1.33;;;0.93;;
45618;SDS011;31343;47.520;19.144;2023-07-31T03:43:56;2.08;;;1.50;;
45618;SDS011;31343;47.520;19.144;2023-07-31T03:46:22;1.90;;;1.27;;
45618;SDS011;31343;47.520;19.144;2023-07-31T03:48:49;2.15;;;1.35;;
45618;SDS011;31343;47.520;19.144;2023-07-31T03:51:15;2.38;;;1.55;;
45618;SDS011;31343;47.520;19.144;2023-07-31T03:53:47;1.60;;;1.17;;
45618;SDS011;31343;47.520;19.144;2023-07-31T03:56:14;1.85;;;0.90;;
45618;SDS011;31343;47.520;19.144;2023-07-31T03:58:41;1.27;;;1.02;;
45618;SDS011;31343;47.520;19.144;2023-07-31T04:01:06;1.33;;;0.80;;
45618;SDS011;31343;47.520;19.144;2023-07-31T04:03:32;1.08;;;0.82;;
45618;SDS011;31343;47.520;19.144;2023-07-31T04:05:58;2.10;;;1.33;;
45618;SDS011;31343;47.520;19.144;2023-07-31T04:08:24;1.15;;;0.80;;
45618;SDS011;31343;47.520;19.144;2023-07-31T04:10:52;1.75;;;1.10;;
45618;SDS011;31343;47.520;19.144;2023-07-31T04:13:18;1.10;;;0.77;;
45618;SDS011;31343;47.520;19.144;2023-07-31T04:15:48;1.08;;;0.57;;
45618;SDS011;31343;47.520;19.144;2023-07-31T04:18:15;2.45;;;0.88;;
45618;SDS011;31343;47.520;19.144;2023-07-31T04:20:43;3.85;;;1.88;;
45618;SDS011;31343;47.520;19.144;2023-07-31T04:23:09;1.60;;;1.30;;
45618;SDS011;31343;47.520;19.144;2023-07-31T04:25:35;1.10;;;0.80;;
45618;SDS011;31343;47.520;19.144;2023-07-31T04:28:01;1.80;;;0.98;;
45618;SDS011;31343;47.520;19.144;2023-07-31T04:30:29;0.80;;;0.80;;
45618;SDS011;31343;47.520;19.144;2023-07-31T04:32:54;1.48;;;1.00;;
45618;SDS011;31343;47.520;19.144;2023-07-31T04:35:20;0.88;;;0.70;;
45618;SDS011;31343;47.520;19.144;2023-07-31T04:37:47;1.10;;;1.00;;
45618;SDS011;31343;47.520;19.144;2023-07-31T04:40:15;0.93;;;0.70;;
45618;SDS011;31343;47.520;19.144;2023-07-31T04:42:42;0.70;;;0.55;;
45618;SDS011;31343;47.520;19.144;2023-07-31T04:45:08;0.98;;;0.70;;
45618;SDS011;31343;47.520;19.144;2023-07-31T04:47:36;0.90;;;0.70;;
45618;SDS011;31343;47.520;19.144;2023-07-31T04:50:03;0.82;;;0.80;;
45618;SDS011;31343;47.520;19.144;2023-07-31T04:52:31;1.48;;;0.88;;
45618;SDS011;31343;47.520;19.144;2023-07-31T04:54:57;1.27;;;0.85;;
45618;SDS011;31343;47.520;19.144;2023-07-31T04:57:23;1.05;;;0.68;;
45618;SDS011;31343;47.520;19.144;2023-07-31T04:59:51;0.63;;;0.50;;
45618;SDS011;31343;47.520;19.144;2023-07-31T05:02:18;1.48;;;0.70;;
45618;SDS011;31343;47.520;19.144;2023-07-31T05:04:47;1.67;;;1.00;;
45618;SDS011;31343;47.520;19.144;2023-07-31T05:07:19;0.95;;;0.70;;
45618;SDS011;31343;47.520;19.144;2023-07-31T05:09:45;4.78;;;0.90;;
45618;SDS011;31343;47.520;19.144;2023-07-31T05:12:10;1.50;;;0.95;;
45618;SDS011;31343;47.520;19.144;2023-07-31T05:14:38;1.88;;;0.93;;
45618;SDS011;31343;47.520;19.144;2023-07-31T05:17:15;0.95;;;0.75;;
45618;SDS011;31343;47.520;19.144;2023-07-31T05:19:40;0.82;;;0.65;;
45618;SDS011;31343;47.520;19.144;2023-07-31T05:22:08;0.70;;;0.70;;
45618;SDS011;31343;47.520;19.144;2023-07-31T05:24:35;0.93;;;0.50;;
45618;SDS011;31343;47.520;19.144;2023-07-31T05:27:02;0.73;;;0.40;;
45618;SDS011;31343;47.520;19.144;2023-07-31T05:29:30;0.45;;;0.45;;
45618;SDS011;31343;47.520;19.144;2023-07-31T05:31:56;0.80;;;0.55;;
45618;SDS011;31343;47.520;19.144;2023-07-31T05:34:22;1.05;;;0.55;;
45618;SDS011;31343;47.520;19.144;2023-07-31T05:36:48;1.95;;;1.00;;
45618;SDS011;31343;47.520;19.144;2023-07-31T05:39:17;1.17;;;0.70;;
45618;SDS011;31343;47.520;19.144;2023-07-31T05:41:44;1.08;;;0.73;;
45618;SDS011;31343;47.520;19.144;2023-07-31T05:44:12;1.45;;;0.65;;
45618;SDS011;31343;47.520;19.144;2023-07-31T05:46:38;1.23;;;0.82;;
45618;SDS011;31343;47.520;19.144;2023-07-31T05:49:04;0.73;;;0.60;;
45618;SDS011;31343;47.520;19.144;2023-07-31T05:51:31;1.80;;;1.05;;
45618;SDS011;31343;47.520;19.144;2023-07-31T05:53:56;0.93;;;0.70;;
45618;SDS011;31343;47.520;19.144;2023-07-31T05:56:22;1.63;;;0.57;;
45618;SDS011;31343;47.520;19.144;2023-07-31T05:58:49;1.83;;;0.60;;
45618;SDS011;31343;47.520;19.144;2023-07-31T06:01:16;1.05;;;0.50;;
45618;SDS011;31343;47.520;19.144;2023-07-31T06:03:46;0.50;;;0.45;;
45618;SDS011;31343;47.520;19.144;2023-07-31T06:06:12;1.65;;;0.60;;
45618;SDS011;31343;47.520;19.144;2023-07-31T06:08:39;1.70;;;0.70;;
45618;SDS011;31343;47.520;19.144;2023-07-31T06:11:08;0.43;;;0.40;;
45618;SDS011;31343;47.520;19.144;2023-07-31T06:13:36;0.77;;;0.50;;
45618;SDS011;31343;47.520;19.144;2023-07-31T06:16:02;0.65;;;0.60;;
45618;SDS011;31343;47.520;19.144;2023-07-31T06:18:31;0.80;;;0.50;;
45618;SDS011;31343;47.520;19.144;2023-07-31T06:20:57;1.38;;;0.63;;
45618;SDS011;31343;47.520;19.144;2023-07-31T06:23:23;0.75;;;0.50;;
45618;SDS011;31343;47.520;19.144;2023-07-31T06:25:49;0.93;;;0.50;;
45618;SDS011;31343;47.520;19.144;2023-07-31T06:28:16;1.98;;;0.75;;
45618;SDS011;31343;47.520;19.144;2023-07-31T06:30:41;1.00;;;0.68;;
45618;SDS011;31343;47.520;19.144;2023-07-31T06:33:09;1.67;;;1.05;;
45618;SDS011;31343;47.520;19.144;2023-07-31T06:35:35;0.50;;;0.32;;
45618;SDS011;31343;47.520;19.144;2023-07-31T06:38:02;0.70;;;0.60;;
45618;SDS011;31343;47.520;19.144;2023-07-31T06:40:28;1.02;;;0.63;;
45618;SDS011;31343;47.520;19.144;2023-07-31T06:42:54;0.52;;;0.40;;
45618;SDS011;31343;47.520;19.144;2023-07-31T06:45:21;1.02;;;0.77;;
45618;SDS011;31343;47.520;19.144;2023-07-31T06:47:49;0.50;;;0.50;;
45618;SDS011;31343;47.520;19.144;2023-07-31T06:50:17;0.80;;;0.68;;
45618;SDS011;31343;47.520;19.144;2023-07-31T06:52:42;0.43;;;0.40;;
45618;SDS011;31343;47.520;19.144;2023-07-31T06:55:16;0.52;;;0.45;;
45618;SDS011;31343;47.520;19.144;2023-07-31T06:57:43;0.88;;;0.52;;
45618;SDS011;31343;47.520;19.144;2023-07-31T07:00:10;1.25;;;0.68;;
45618;SDS011;31343;47.520;19.144;2023-07-31T07:02:37;4.80;;;0.65;;
45618;SDS011;31343;47.520;19.144;2023-07-31T07:05:02;0.65;;;0.40;;
45618;SDS011;31343;47.520;19.144;2023-07-31T07:07:29;0.88;;;0.60;;
45618;SDS011;31343;47.520;19.144;2023-07-31T07:09:55;1.15;;;0.85;;
45618;SDS011;31343;47.520;19.144;2023-07-31T07:12:22;5.82;;;1.08;;
45618;SDS011;31343;47.520;19.144;2023-07-31T07:14:47;1.38;;;0.77;;
45618;SDS011;31343;47.520;19.144;2023-07-31T07:17:14;0.40;;;0.38;;
45618;SDS011;31343;47.520;19.144;2023-07-31T07:19:40;1.40;;;0.95;;
45618;SDS011;31343;47.520;19.144;2023-07-31T07:22:06;1.08;;;0.65;;
45618;SDS011;31343;47.520;19.144;2023-07-31T07:24:32;0.40;;;0.35;;
45618;SDS011;31343;47.520;19.144;2023-07-31T07:26:58;1.20;;;0.85;;
45618;SDS011;31343;47.520;19.144;2023-07-31T07:29:25;0.60;;;0.60;;
45618;SDS011;31343;47.520;19.144;2023-07-31T07:31:52;0.98;;;0.70;;
45618;SDS011;31343;47.520;19.144;2023-07-31T07:34:19;4.20;;;0.80;;
45618;SDS011;31343;47.520;19.144;2023-07-31T07:36:47;0.52;;;0.50;;
45618;SDS011;31343;47.520;19.144;2023-07-31T07:39:14;1.02;;;0.60;;
45618;SDS011;31343;47.520;19.144;2023-07-31T07:41:39;0.68;;;0.60;;
45618;SDS011;31343;47.520;19.144;2023-07-31T07:44:05;0.77;;;0.52;;
45618;SDS011;31343;47.520;19.144;2023-07-31T07:46:33;0.70;;;0.47;;
45618;SDS011;31343;47.520;19.144;2023-07-31T07:48:59;0.43;;;0.40;;
45618;SDS011;31343;47.520;19.144;2023-07-31T07:51:25;0.73;;;0.60;;
45618;SDS011;31343;47.520;19.144;2023-07-31T07:53:50;0.68;;;0.40;;
45618;SDS011;31343;47.520;19.144;2023-07-31T07:56:16;1.17;;;0.65;;
45618;SDS011;31343;47.520;19.144;2023-07-31T07:58:42;1.30;;;0.68;;
45618;SDS011;31343;47.520;19.144;2023-07-31T08:01:08;1.33;;;0.75;;
45618;SDS011;31343;47.520;19.144;2023-07-31T08:03:35;1.00;;;0.57;;
45618;SDS011;31343;47.520;19.144;2023-07-31T08:06:01;1.40;;;0.80;;
45618;SDS011;31343;47.520;19.144;2023-07-31T08:08:30;1.05;;;0.55;;
45618;SDS011;31343;47.520;19.144;2023-07-31T08:10:56;0.70;;;0.60;;
45618;SDS011;31343;47.520;19.144;2023-07-31T08:13:22;1.05;;;0.45;;
45618;SDS011;31343;47.520;19.144;2023-07-31T08:15:48;0.40;;;0.40;;
45618;SDS011;31343;47.520;19.144;2023-07-31T08:18:14;0.45;;;0.45;;
45618;SDS011;31343;47.520;19.144;2023-07-31T08:20:41;0.40;;;0.40;;
45618;SDS011;31343;47.520;19.144;2023-07-31T08:23:06;0.43;;;0.30;;
45618;SDS011;31343;47.520;19.144;2023-07-31T08:25:34;1.05;;;0.63;;
45618;SDS011;31343;47.520;19.144;2023-07-31T08:28:01;0.73;;;0.47;;
45618;SDS011;31343;47.520;19.144;2023-07-31T08:30:27;0.30;;;0.30;;
45618;SDS011;31343;47.520;19.144;2023-07-31T08:32:53;0.68;;;0.47;;
45618;SDS011;31343;47.520;19.144;2023-07-31T08:35:18;1.67;;;0.50;;
45618;SDS011;31343;47.520;19.144;2023-07-31T08:37:45;1.13;;;0.68;;
45618;SDS011;31343;47.520;19.144;2023-07-31T08:40:11;1.33;;;0.60;;
45618;SDS011;31343;47.520;19.144;2023-07-31T08:42:45;0.85;;;0.60;;
45618;SDS011;31343;47.520;19.144;2023-07-31T08:45:15;1.13;;;0.53;;
45618;SDS011;31343;47.520;19.144;2023-07-31T08:47:47;0.90;;;0.50;;
45618;SDS011;31343;47.520;19.144;2023-07-31T08:50:15;0.52;;;0.45;;
45618;SDS011;31343;47.520;19.144;2023-07-31T08:52:48;0.32;;;0.30;;
45618;SDS011;31343;47.520;19.144;2023-07-31T08:55:15;0.35;;;0.35;;
45618;SDS011;31343;47.520;19.144;2023-07-31T08:57:42;0.40;;;0.40;;
45618;SDS011;31343;47.520;19.144;2023-07-31T09:00:09;0.57;;;0.40;;
45618;SDS011;31343;47.520;19.144;2023-07-31T09:02:45;0.80;;;0.70;;
45618;SDS011;31343;47.520;19.144;2023-07-31T09:05:11;1.90;;;0.45;;
45618;SDS011;31343;47.520;19.144;2023-07-31T09:07:38;0.88;;;0.50;;
45618;SDS011;31343;47.520;19.144;2023-07-31T09:10:05;0.55;;;0.50;;
45618;SDS011;31343;47.520;19.144;2023-07-31T09:12:34;0.50;;;0.50;;
45618;SDS011;31343;47.520;19.144;2023-07-31T09:15:00;1.20;;;0.68;;
45618;SDS011;31343;47.520;19.144;2023-07-31T09:17:29;0.45;;;0.40;;
45618;SDS011;31343;47.520;19.144;2023-07-31T09:19:56;1.58;;;0.88;;
45618;SDS011;31343;47.520;19.144;2023-07-31T09:22:32;0.77;;;0.60;;
45618;SDS011;31343;47.520;19.144;2023-07-31T09:25:14;1.50;;;1.00;;
45618;SDS011;31343;47.520;19.144;2023-07-31T09:27:49;0.45;;;0.45;;
45618;SDS011;31343;47.520;19.144;2023-07-31T09:30:21;0.40;;;0.40;;
45618;SDS011;31343;47.520;19.144;2023-07-31T09:32:48;1.13;;;0.77;;
45618;SDS011;31343;47.520;19.144;2023-07-31T09:35:22;0.90;;;0.80;;
45618;SDS011;31343;47.520;19.144;2023-07-31T09:37:55;0.90;;;0.50;;
45618;SDS011;31343;47.520;19.144;2023-07-31T09:40:26;0.68;;;0.57;;
45618;SDS011;31343;47.520;19.144;2023-07-31T09:42:57;1.50;;;0.80;;
45618;SDS011;31343;47.520;19.144;2023-07-31T09:45:24;0.57;;;0.40;;
45618;SDS011;31343;47.520;19.144;2023-07-31T09:47:50;0.68;;;0.52;;
45618;SDS011;31343;47.520;19.144;2023-07-31T09:50:19;0.63;;;0.50;;
45618;SDS011;31343;47.520;19.144;2023-07-31T09:52:45;1.00;;;0.85;;
45618;SDS011;31343;47.520;19.144;2023-07-31T09:55:11;0.50;;;0.50;;
45618;SDS011;31343;47.520;19.144;2023-07-31T09:57:39;1.40;;;0.57;;
45618;SDS011;31343;47.520;19.144;2023-07-31T10:00:09;0.63;;;0.40;;
45618;SDS011;31343;47.520;19.144;2023-07-31T10:02:36;1.55;;;0.73;;
45618;SDS011;31343;47.520;19.144;2023-07-31T10:05:03;0.50;;;0.50;;
45618;SDS011;31343;47.520;19.144;2023-07-31T10:07:31;0.68;;;0.50;;
45618;SDS011;31343;47.520;19.144;2023-07-31T10:09:59;0.70;;;0.60;;
45618;SDS011;31343;47.520;19.144;2023-07-31T10:12:26;1.08;;;0.55;;
45618;SDS011;31343;47.520;19.144;2023-07-31T10:14:55;1.20;;;0.52;;
45618;SDS011;31343;47.520;19.144;2023-07-31T10:17:25;0.32;;;0.32;;
45618;SDS011;31343;47.520;19.144;2023-07-31T10:19:52;0.93;;;0.35;;
45618;SDS011;31343;47.520;19.144;2023-07-31T10:22:21;0.80;;;0.40;;
45618;SDS011;31343;47.520;19.144;2023-07-31T10:24:48;1.63;;;0.50;;
45618;SDS011;31343;47.520;19.144;2023-07-31T10:27:17;0.70;;;0.50;;
45618;SDS011;31343;47.520;19.144;2023-07-31T10:29:45;0.52;;;0.45;;
45618;SDS011;31343;47.520;19.144;2023-07-31T10:32:13;0.90;;;0.70;;
45618;SDS011;31343;47.520;19.144;2023-07-31T10:34:40;0.32;;;0.30;;
45618;SDS011;31343;47.520;19.144;2023-07-31T10:45:17;0.35;;;0.32;;
45618;SDS011;31343;47.520;19.144;2023-07-31T10:47:58;1.77;;;0.55;;
45618;SDS011;31343;47.520;19.144;2023-07-31T10:50:31;0.60;;;0.40;;
45618;SDS011;31343;47.520;19.144;2023-07-31T10:53:30;0.55;;;0.40;;
45618;SDS011;31343;47.520;19.144;2023-07-31T10:55:58;2.53;;;1.17;;
45618;SDS011;31343;47.520;19.144;2023-07-31T10:58:25;0.63;;;0.43;;
45618;SDS011;31343;47.520;19.144;2023-07-31T11:00:55;0.85;;;0.40;;
45618;SDS011;31343;47.520;19.144;2023-07-31T11:03:24;0.80;;;0.60;;
45618;SDS011;31343;47.520;19.144;2023-07-31T11:05:53;0.50;;;0.50;;
45618;SDS011;31343;47.520;19.144;2023-07-31T11:08:29;0.90;;;0.55;;
45618;SDS011;31343;47.520;19.144;2023-07-31T11:13:46;0.65;;;0.45;;
45618;SDS011;31343;47.520;19.144;2023-07-31T11:16:22;0.93;;;0.70;;
45618;SDS011;31343;47.520;19.144;2023-07-31T11:18:51;0.85;;;0.65;;
45618;SDS011;31343;47.520;19.144;2023-07-31T11:21:19;0.40;;;0.40;;
45618;SDS011;31343;47.520;19.144;2023-07-31T11:23:49;0.88;;;0.60;;
45618;SDS011;31343;47.520;19.144;2023-07-31T11:26:17;0.43;;;0.30;;
45618;SDS011;31343;47.520;19.144;2023-07-31T11:28:46;1.23;;;0.30;;
45618;SDS011;31343;47.520;19.144;2023-07-31T11:31:13;0.80;;;0.50;;
45618;SDS011;31343;47.520;19.144;2023-07-31T11:33:39;0.47;;;0.32;;
45618;SDS011;31343;47.520;19.144;2023-07-31T11:36:06;0.52;;;0.52;;
45618;SDS011;31343;47.520;19.144;2023-07-31T11:38:39;0.60;;;0.40;;
45618;SDS011;31343;47.520;19.144;2023-07-31T11:41:06;0.50;;;0.45;;
45618;SDS011;31343;47.520;19.144;2023-07-31T11:43:31;0.90;;;0.63;;
45618;SDS011;31343;47.520;19.144;2023-07-31T11:45:58;0.65;;;0.60;;
45618;SDS011;31343;47.520;19.144;2023-07-31T11:48:31;1.05;;;0.47;;
45618;SDS011;31343;47.520;19.144;2023-07-31T11:51:01;1.13;;;0.63;;
45618;SDS011;31343;47.520;19.144;2023-07-31T11:56:11;0.85;;;0.40;;
45618;SDS011;31343;47.520;19.144;2023-07-31T11:58:45;0.50;;;0.45;;
45618;SDS011;31343;47.520;19.144;2023-07-31T12:01:16;0.55;;;0.35;;
45618;SDS011;31343;47.520;19.144;2023-07-31T12:03:44;1.08;;;0.40;;
45618;SDS011;31343;47.520;19.144;2023-07-31T12:06:11;1.13;;;0.38;;
45618;SDS011;31343;47.520;19.144;2023-07-31T12:08:37;0.70;;;0.50;;
45618;SDS011;31343;47.520;19.144;2023-07-31T12:11:04;1.55;;;0.52;;
45618;SDS011;31343;47.520;19.144;2023-07-31T12:13:32;0.30;;;0.30;;
45618;SDS011;31343;47.520;19.144;2023-07-31T12:15:59;0.77;;;0.38;;
45618;SDS011;31343;47.520;19.144;2023-07-31T12:18:28;1.65;;;0.63;;
45618;SDS011;31343;47.520;19.144;2023-07-31T12:20:59;0.85;;;0.45;;
45618;SDS011;31343;47.520;19.144;2023-07-31T12:23:30;0.85;;;0.60;;
45618;SDS011;31343;47.520;19.144;2023-07-31T12:26:04;1.02;;;0.52;;
45618;SDS011;31343;47.520;19.144;2023-07-31T12:28:30;0.30;;;0.28;;
45618;SDS011;31343;47.520;19.144;2023-07-31T12:31:00;0.63;;;0.40;;
45618;SDS011;31343;47.520;19.144;2023-07-31T12:33:33;0.43;;;0.40;;
45618;SDS011;31343;47.520;19.144;2023-07-31T12:36:04;0.65;;;0.50;;
45618;SDS011;31343;47.520;19.144;2023-07-31T12:38:32;1.10;;;0.50;;
45618;SDS011;31343;47.520;19.144;2023-07-31T12:40:58;0.88;;;0.40;;
45618;SDS011;31343;47.520;19.144;2023-07-31T12:43:24;1.25;;;0.68;;
45618;SDS011;31343;47.520;19.144;2023-07-31T12:45:51;0.77;;;0.40;;
45618;SDS011;31343;47.520;19.144;2023-07-31T12:48:19;0.47;;;0.40;;
45618;SDS011;31343;47.520;19.144;2023-07-31T12:50:44;0.47;;;0.38;;
45618;SDS011;31343;47.520;19.144;2023-07-31T12:53:12;1.02;;;0.45;;
45618;SDS011;31343;47.520;19.144;2023-07-31T12:55:40;0.40;;;0.40;;
45618;SDS011;31343;47.520;19.144;2023-07-31T12:58:06;0.47;;;0.28;;
45618;SDS011;31343;47.520;19.144;2023-07-31T13:00:31;0.20;;;0.20;;
45618;SDS011;31343;47.520;19.144;2023-07-31T13:02:57;0.65;;;0.32;;
45618;SDS011;31343;47.520;19.144;2023-07-31T13:05:26;0.65;;;0.45;;
45618;SDS011;31343;47.520;19.144;2023-07-31T13:07:52;0.40;;;0.40;;
45618;SDS011;31343;47.520;19.144;2023-07-31T13:10:20;0.40;;;0.40;;
45618;SDS011;31343;47.520;19.144;2023-07-31T13:12:47;0.40;;;0.40;;
45618;SDS011;31343;47.520;19.144;2023-07-31T13:15:15;0.30;;;0.30;;
45618;SDS011;31343;47.520;19.144;2023-07-31T13:17:41;0.38;;;0.38;;
45618;SDS011;31343;47.520;19.144;2023-07-31T13:20:09;0.63;;;0.47;;
45618;SDS011;31343;47.520;19.144;2023-07-31T13:22:36;1.35;;;0.70;;
45618;SDS011;31343;47.520;19.144;2023-07-31T13:25:02;0.70;;;0.47;;
45618;SDS011;31343;47.520;19.144;2023-07-31T13:27:28;0.85;;;0.52;;
45618;SDS011;31343;47.520;19.144;2023-07-31T13:29:54;0.82;;;0.57;;
45618;SDS011;31343;47.520;19.144;2023-07-31T13:32:20;0.93;;;0.70;;
45618;SDS011;31343;47.520;19.144;2023-07-31T13:34:47;0.60;;;0.40;;
45618;SDS011;31343;47.520;19.144;2023-07-31T13:37:14;1.10;;;0.82;;
45618;SDS011;31343;47.520;19.144;2023-07-31T13:39:42;1.05;;;0.43;;
45618;SDS011;31343;47.520;19.144;2023-07-31T13:42:08;1.20;;;1.02;;
45618;SDS011;31343;47.520;19.144;2023-07-31T13:44:38;0.52;;;0.45;;
45618;SDS011;31343;47.520;19.144;2023-07-31T13:47:04;1.20;;;0.50;;
45618;SDS011;31343;47.520;19.144;2023-07-31T13:49:30;1.00;;;0.47;;
45618;SDS011;31343;47.520;19.144;2023-07-31T13:51:57;0.50;;;0.40;;
45618;SDS011;31343;47.520;19.144;2023-07-31T13:54:24;0.80;;;0.45;;
45618;SDS011;31343;47.520;19.144;2023-07-31T13:56:51;0.32;;;0.30;;
45618;SDS011;31343;47.520;19.144;2023-07-31T13:59:18;1.13;;;0.73;;
45618;SDS011;31343;47.520;19.144;2023-07-31T14:01:45;0.73;;;0.40;;
45618;SDS011;31343;47.520;19.144;2023-07-31T14:04:11;0.50;;;0.50;;
45618;SDS011;31343;47.520;19.144;2023-07-31T14:06:37;0.40;;;0.40;;
45618;SDS011;31343;47.520;19.144;2023-07-31T14:09:04;1.13;;;0.40;;
45618;SDS011;31343;47.520;19.144;2023-07-31T14:11:32;0.43;;;0.43;;
45618;SDS011;31343;47.520;19.144;2023-07-31T14:13:57;0.50;;;0.50;;
45618;SDS011;31343;47.520;19.144;2023-07-31T14:16:24;2.53;;;0.70;;
45618;SDS011;31343;47.520;19.144;2023-07-31T14:18:50;0.77;;;0.47;;
45618;SDS011;31343;47.520;19.144;2023-07-31T14:21:16;0.70;;;0.40;;
45618;SDS011;31343;47.520;19.144;2023-07-31T14:23:45;0.60;;;0.40;;
45618;SDS011;31343;47.520;19.144;2023-07-31T14:26:14;1.13;;;0.52;;
45618;SDS011;31343;47.520;19.144;2023-07-31T14:28:41;1.33;;;0.98;;
45618;SDS011;31343;47.520;19.144;2023-07-31T14:31:08;1.30;;;0.80;;
45618;SDS011;31343;47.520;19.144;2023-07-31T14:33:35;0.52;;;0.50;;
45618;SDS011;31343;47.520;19.144;2023-07-31T14:36:01;0.90;;;0.50;;
45618;SDS011;31343;47.520;19.144;2023-07-31T14:38:27;0.95;;;0.40;;
45618;SDS011;31343;47.520;19.144;2023-07-31T14:40:53;0.60;;;0.52;;
45618;SDS011;31343;47.520;19.144;2023-07-31T14:43:19;0.80;;;0.55;;
45618;SDS011;31343;47.520;19.144;2023-07-31T14:45:46;0.73;;;0.50;;
45618;SDS011;31343;47.520;19.144;2023-07-31T14:48:14;0.80;;;0.68;;
45618;SDS011;31343;47.520;19.144;2023-07-31T14:50:41;0.70;;;0.55;;
45618;SDS011;31343;47.520;19.144;2023-07-31T14:53:08;0.75;;;0.50;;
45618;SDS011;31343;47.520;19.144;2023-07-31T14:55:34;0.63;;;0.45;;